Manhattan, KS (66502)

12:46 PM CST on January 31, 2015 (GMT -0600)
500 yards west of Bill Snyder Family Stadium | Change Station
CLOSE
Current Station
Personal Weather Station
Location: Manhattan, KS
Elevation: 1150 ft
Nearby Weather Stations

Elev 1150 ft 39.19 °N, 96.59 °W | Updated 2 seconds ago

Rain
Rain
35.4 °F
Feels Like 35 °F
N
2.2
Wind Variable Wind from SE
Gusts 6.0 mph

Today
High -- | Low -- °F
--% Chance of Precip.
Yesterday
High -- | Low -- °F
Precip. -- in
7:34 AM 5:45 PM
Waxing Gibbous, 91% visible
Pressure 30.09 in
Visibility 3.0 miles
Clouds Scattered Clouds 700 ft
Overcast 1700 ft
Windchill 35 °F
Dew Point 35 °F
Humidity 99%
Rainfall 0.33 in
Snow Depth Not available.
UV 1 out of 12
Pollen .10 out of 12
Air Quality Not available.
Flu Activity Not available.
SPECI KMHK 311841Z 13005KT 3SM -RA BR SCT007 OVC017 02/01 A3009 RMK AO2 P0004 T00170011

More Conditions Fewer Conditions

Pressure 30.09 in
Visibility 3.0 miles
Clouds Scattered Clouds 700 ft
Overcast 1700 ft
Windchill 35 °F
Dew Point 35 °F
Humidity 99%
Rainfall 0.33 in
Snow Depth Not available.
UV 1 out of 12
Pollen .10 out of 12
Air Quality Not available.
Flu Activity Not available.
SPECI KMHK 311841Z 13005KT 3SM -RA BR SCT007 OVC017 02/01 A3009 RMK AO2 P0004 T00170011

More Conditions Fewer Conditions

10-Day Weather Forecast

Almanac

Astronomy

Jan. 31, 2015 Rise Set
Actual Time
Civil Twilight
Nautical Twilight
Astronomical Twilight
Moon
Length of Visible Light
Length of Day
Tomorrow will be .
, % of the Moon is Illuminated

Today's Extremes

State Highs State Lows

Community

WunderPhotos

Upload Photos

1,792,149 photos uploaded!

WunderBlogs® & News

Nearby

Air Quality

  Air Quality AQ Index Pollutant
Not available.

Snow Depth

Station Depth Elevation

Earthquake Activity

City Distance Mag. Time & Date
Minimum magnitude displayed is 2.5.

Coastal Water Temperatures

Place Temperature

Nearby Weather Stations